Flight Track Log - Related Links

Times and Time Zones

All times are in EDT time to prevent confusion due to time zone crossing. See the EJA728 flight status page for this flight to view local times or setup timezone preferences in your user account.

Time Position Orientation Groundspeed Altitude Reporting Facility
EDT Latitude Longitude Course Direction KTS MPH feet Rate Location/Type
Fri 03:31:14 PM 41.2992 -95.8914 136° Southeast 151 174 1,800  Level Minneapolis Center
Fri 03:31:38 PM 41.2856 -95.8736 136° Southeast 166 191 3,100 3,388 Climbing Minneapolis Center
Fri 03:32:39 PM 41.2436 -95.8119 132° Southeast 260 299 6,600 3,407 Climbing Minneapolis Center
Fri 03:33:36 PM 41.1833 -95.7517 143° Southeast 264 304 9,800 3,176 Climbing Minneapolis Center
Fri 03:34:38 PM 41.1067 -95.6869 148° Southeast 303 349 12,900 2,661 Climbing Minneapolis Center
Fri 03:35:40 PM 41.0317 -95.6483 159° South 334 384 15,300 2,806 Climbing Minneapolis Center
Fri 03:36:42 PM 40.9133 -95.5703 153° Southeast 384 442 18,700 3,088 Climbing Minneapolis Center
Fri 03:37:56 PM 40.7869 -95.4844 153° Southeast 417 480 22,300 2,759 Climbing Minneapolis Center
Fri 03:38:59 PM 40.6572 -95.3964 153° Southeast 431 496 25,000 2,448 Climbing Minneapolis Center
Fri 03:40:01 PM 40.5439 -95.3194 153° Southeast 450 518 27,400 2,081 Climbing Minneapolis Center
Fri 03:41:03 PM 40.4306 -95.2417 152° Southeast 457 526 29,300 1,645 Climbing Minneapolis Center
Fri 03:42:05 PM 40.3147 -95.1622 152° Southeast 464 534 30,800 1,694 Climbing Minneapolis Center
Fri 03:43:07 PM 40.1975 -95.0831 153° Southeast 470 541 32,800 1,517 Climbing Minneapolis Center
Fri 03:43:32 PM 40.1433 -95.0447 152° Southeast 471 542 33,000 419 Climbing Kansas City Center
Fri 03:44:33 PM 40.0286 -94.9708 154° Southeast 477 549 33,400 492 Climbing Kansas City Center
Fri 03:45:34 PM 39.8931 -94.8806 153° Southeast 486 559 34,000 288 Climbing Kansas City Center
Fri 03:46:38 PM 39.7778 -94.8086 154° Southeast 479 551 34,000 432 Level Kansas City Center
Fri 03:47:39 PM 39.6450 -94.7250 154° Southeast 473 544 34,900 893 Climbing Kansas City Center
Fri 03:48:39 PM 39.5308 -94.6533 154° Southeast 473 544 35,800 968 Climbing Kansas City Center
Fri 03:49:43 PM 39.3983 -94.5683 154° Southeast 473 544 36,900 864 Climbing Kansas City Center
Fri 03:50:44 PM 39.2817 -94.4964 154° Southeast 480 552 37,600 823 Climbing Kansas City Center
Fri 03:51:47 PM 39.1658 -94.4253 155° Southeast 479 551 38,600 1,016 Climbing Kansas City Center
Fri 03:52:48 PM 39.0314 -94.3431 155° Southeast 478 550 39,700 1,008 Climbing Kansas City Center
Fri 03:53:52 PM 38.9197 -94.2614 150° Southeast 484 557 40,700 624 Climbing Kansas City Center
Fri 03:54:53 PM 38.8094 -94.1267 136° Southeast 492 566 41,000 145 Climbing Kansas City Center
Fri 03:55:56 PM 38.7178 -94.0139 136° Southeast 478 550 41,000  Level Kansas City Center
Fri 03:56:57 PM 38.6142 -93.8867 136° Southeast 462 532 41,000  Level Kansas City Center
Fri 03:58:01 PM 38.5253 -93.7783 136° Southeast 460 529 41,000  Level Kansas City Center
Fri 03:59:02 PM 38.4225 -93.6506 136° Southeast 462 532 41,000  Level Kansas City Center
Fri 04:00:02 PM 38.3283 -93.5358 136° Southeast 467 537 41,000  Level Kansas City Center
Fri 04:01:06 PM 38.2325 -93.4206 137° Southeast 472 543 41,000  Level Kansas City Center
Fri 04:02:07 PM 38.1364 -93.3061 137° Southeast 473 544 41,000  Level Kansas City Center
Fri 04:03:08 PM 38.0419 -93.1922 136° Southeast 470 541 41,000  Level Kansas City Center
Fri 04:04:12 PM 37.9475 -93.0808 137° Southeast 466 536 41,000  Level Kansas City Center
Fri 04:05:12 PM 37.8372 -92.9461 136° Southeast 462 532 41,000  Level Kansas City Center
Fri 04:06:16 PM 37.7428 -92.8350 137° Southeast 465 535 41,000  Level Kansas City Center
Fri 04:07:17 PM 37.6494 -92.7244 137° Southeast 465 535 41,000  Level Kansas City Center
Fri 04:08:21 PM 37.5564 -92.6144 137° Southeast 463 533 41,000  Level Kansas City Center
Fri 04:09:21 PM 37.4628 -92.5047 137° Southeast 461 531 41,000 -532 Level Kansas City Center
Fri 04:10:25 PM 37.3514 -92.3728 137° Southeast 461 531 39,900 -1,632 Descending Kansas City Center
Fri 04:11:26 PM 37.2547 -92.2600 137° Southeast 469 540 37,600 -2,213 Descending Kansas City Center
Fri 04:12:27 PM 37.1600 -92.1489 137° Southeast 470 541 35,400 -2,112 Descending Kansas City Center
Fri 04:13:31 PM 37.0675 -92.0400 137° Southeast 460 529 33,200 -1,161 Descending Kansas City Center
Fri 04:14:31 PM 36.9728 -91.9328 138° Southeast 460 529 33,000 -98 Descending Kansas City Center
Fri 04:15:34 PM 36.8731 -91.8183 137° Southeast 476 548 33,000  Level Kansas City Center
Fri 04:16:35 PM 36.7506 -91.6772 137° Southeast 494 568 33,000  Level Kansas City Center
Fri 04:17:39 PM 36.6483 -91.5614 138° Southeast 497 572 33,000  Level Kansas City Center
Fri 04:18:08 PM 36.5911 -91.4967 138° Southeast 494 568 33,000  Level Memphis Center
Fri 04:19:08 PM 36.5044 -91.4000 138° Southeast 488 562 33,000  Level Memphis Center
Fri 04:20:08 PM 36.3969 -91.2825 139° Southeast 482 555 33,000 -397 Level Memphis Center
Fri 04:21:09 PM 36.2978 -91.1733 138° Southeast 477 549 32,200 -1,750 Descending Memphis Center
Fri 04:22:08 PM 36.1942 -91.0592 138° Southeast 482 555 29,500 -2,571 Descending Memphis Center
Fri 04:23:08 PM 36.0947 -90.9531 139° Southeast 482 555 27,100 -2,450 Descending Memphis Center
Fri 04:24:08 PM 35.9678 -90.9186 168° South 452 520 24,600 -2,300 Descending Memphis Center
Fri 04:25:08 PM 35.8511 -90.8872 168° South 446 513 22,500 -1,850 Descending Memphis Center
Fri 04:26:08 PM 35.7364 -90.8608 169° South 435 501 20,900 -1,550 Descending Memphis Center
Fri 04:27:08 PM 35.6261 -90.8294 167° South 408 470 19,400 -1,550 Descending Memphis Center
Fri 04:28:08 PM 35.5114 -90.8033 170° South 408 470 17,800 -1,500 Descending Memphis Center
Fri 04:29:08 PM 35.4344 -90.7086 135° Southeast 388 447 16,400 -1,300 Descending Memphis Center
Fri 04:30:08 PM 35.3911 -90.5914 114° Southeast 359 413 15,200 -1,100 Descending Memphis Center
Fri 04:31:08 PM 35.3453 -90.4792 117° Southeast 365 420 14,200 -950 Descending Memphis Center
Fri 04:32:08 PM 35.2889 -90.3928 129° Southeast 342 394 13,300 -850 Descending Memphis Center
Fri 04:33:08 PM 35.2389 -90.3139 128° Southeast 329 379 12,500 -800 Descending Memphis Center
Fri 04:34:08 PM 35.1847 -90.2350 130° Southeast 316 364 11,700 -800 Descending Memphis Center
Fri 04:35:08 PM 35.1386 -90.1667 130° Southeast 278 320 10,900 -1,091 Descending Memphis Center
Fri 04:36:09 PM 35.0822 -90.1108 141° Southeast 259 298 9,500 -1,563 Descending Memphis Center
Fri 04:37:07 PM 35.0000 -90.1000 174° South 275 316 7,800 -1,525 Descending KMEM
Fri 04:38:07 PM 34.9333 -90.1000 180° South 251 289 6,500 -1,041 Descending KMEM
Fri 04:39:08 PM 34.8694 -90.1092 187° South 246 283 5,700 -942 Descending Memphis Center
Fri 04:40:08 PM 34.8150 -90.0814 157° South 196 226 4,600 -1,100 Descending Memphis Center
Fri 04:41:08 PM 34.8253 -90.0231 78° East 157 181 3,500 -833 Descending Memphis Center
Fri 04:43:08 PM 34.9333 -89.9667 23° Northeast 187 215 2,100 -746 Descending KMEM
Fri 04:44:13 PM 34.9833 -89.9667 360° North 158 182 1,200 -703 Descending KMEM
Fri 04:45:16 PM 35.0167 -89.9667 360° North 128 147 600 -571 Descending KMEM
Fri 04:47:00 PM 35.0333 -89.9667 24° Northeast  Level FlightAware Approximate

Login

Don't have an account? Register now (free) for customized features, flight alerts, and more!